Time;durP1;ratioP1;P1;durP2;ratioP2;P2;SDS_P1;SDS_P2;PMS_P1;PMS_P2;Temp;Humidity;BMP_temperature;BMP_pressure;BME280_temperature;BME280_humidity;BME280_pressure;Samples;Min_cycle;Max_cycle;Signal;HPM_P1;HPM_P2
2022/09/08 00:02:00;;;;;;;3.08;2.78;;;17.30;99.90;;;;;;4951477;28;19923;-79
2022/09/08 00:04:28;;;;;;;5.43;3.38;;;17.40;99.90;;;;;;4936717;29;20497;-80
2022/09/08 00:06:56;;;;;;;2.97;2.63;;;17.40;99.90;;;;;;4937110;29;20058;-79
2022/09/08 00:09:24;;;;;;;6.97;3.30;;;17.30;99.90;;;;;;4931352;28;20072;-80
2022/09/08 00:11:51;;;;;;;6.03;3.50;;;17.30;99.90;;;;;;4932003;29;20371;-80
2022/09/08 00:14:19;;;;;;;9.57;4.45;;;17.30;99.90;;;;;;4916870;29;20055;-79
2022/09/08 00:16:47;;;;;;;3.55;2.75;;;17.30;99.90;;;;;;4917089;29;20052;-79
2022/09/08 00:19:14;;;;;;;8.65;3.83;;;17.30;99.90;;;;;;4917618;29;20055;-79
2022/09/08 00:21:42;;;;;;;3.40;2.60;;;17.30;99.90;;;;;;4931889;29;20062;-79
2022/09/08 00:24:09;;;;;;;5.70;3.35;;;17.30;99.90;;;;;;4917151;29;20056;-79
2022/09/08 00:26:37;;;;;;;7.70;3.10;;;17.30;99.90;;;;;;4917813;29;20678;-79
2022/09/08 00:29:05;;;;;;;7.47;3.40;;;17.30;99.90;;;;;;4917286;29;20044;-79
2022/09/08 00:31:37;;;;;;;3.13;2.85;;;17.20;99.90;;;;;;4932281;29;20048;-79
2022/09/08 00:34:04;;;;;;;3.58;3.17;;;17.20;99.90;;;;;;4900068;29;20048;-79
2022/09/08 00:36:33;;;;;;;7.38;2.60;;;17.20;99.90;;;;;;4916005;29;20489;-79
2022/09/08 00:39:01;;;;;;;10.52;3.40;;;17.10;99.90;;;;;;4931506;29;20059;-78
2022/09/08 00:41:29;;;;;;;2.45;2.28;;;17.00;99.90;;;;;;4927501;28;20060;-81
2022/09/08 00:44:01;;;;;;;3.10;2.90;;;16.90;99.90;;;;;;4931841;29;20055;-81
2022/09/08 00:46:37;;;;;;;4.63;3.22;;;16.90;99.90;;;;;;4931965;29;20082;-82
2022/09/08 00:49:19;;;;;;;3.80;2.85;;;16.90;99.90;;;;;;4915636;29;20052;-81
2022/09/08 00:51:51;;;;;;;4.45;3.22;;;16.80;99.90;;;;;;4936910;28;20055;-82
2022/09/08 00:54:20;;;;;;;3.20;2.88;;;16.80;99.90;;;;;;4934869;29;20055;-81
2022/09/08 00:56:48;;;;;;;7.88;3.38;;;16.90;99.90;;;;;;4934615;28;20044;-81
2022/09/08 00:59:27;;;;;;;8.70;6.35;;;16.90;99.90;;;;;;4949314;29;20485;-81
2022/09/08 01:01:55;;;;;;;2.72;2.53;;;16.90;99.90;;;;;;4950296;28;20048;-81
2022/09/08 01:04:23;;;;;;;3.58;3.28;;;16.90;99.90;;;;;;4949564;28;20051;-81
2022/09/08 01:12:45;;;;;;;3.42;3.13;;;16.70;99.90;;;;;;4950144;28;20051;-81
2022/09/08 01:15:19;;;;;;;2.67;2.42;;;16.70;99.90;;;;;;4950839;29;20044;-82
2022/09/08 01:17:49;;;;;;;6.85;3.90;;;16.70;99.90;;;;;;4950354;28;20044;-82
2022/09/08 01:20:24;;;;;;;11.02;5.70;;;16.70;99.90;;;;;;4950033;28;20056;-82
2022/09/08 01:22:56;;;;;;;3.65;3.35;;;16.60;99.90;;;;;;4950376;29;20047;-81
2022/09/08 01:25:48;;;;;;;6.07;3.42;;;16.60;99.90;;;;;;4935450;29;20040;-81
2022/09/08 01:28:33;;;;;;;6.68;2.90;;;16.60;99.90;;;;;;4949760;28;20066;-81
2022/09/08 01:31:03;;;;;;;6.13;3.65;;;16.60;99.90;;;;;;4935827;29;20055;-82
2022/09/08 01:33:31;;;;;;;6.85;3.20;;;16.50;99.90;;;;;;4949769;28;20054;-81
2022/09/08 01:35:59;;;;;;;7.35;3.58;;;16.50;99.90;;;;;;4934005;28;20059;-81
2022/09/08 01:38:27;;;;;;;4.90;2.78;;;16.50;99.90;;;;;;4949906;29;20056;-82
2022/09/08 01:40:55;;;;;;;9.43;4.43;;;16.50;99.90;;;;;;4950031;29;20052;-81
2022/09/08 01:43:22;;;;;;;6.00;2.80;;;16.50;99.90;;;;;;4935541;29;20063;-81
2022/09/08 01:45:50;;;;;;;3.10;2.85;;;16.50;99.90;;;;;;4935580;28;20393;-81
2022/09/08 01:48:18;;;;;;;3.80;3.33;;;16.50;99.90;;;;;;4935040;28;20390;-82
2022/09/08 01:50:45;;;;;;;3.97;3.55;;;16.50;99.90;;;;;;4916957;29;20074;-82
2022/09/08 01:53:13;;;;;;;4.22;2.40;;;16.50;99.90;;;;;;4930675;29;20052;-82
2022/09/08 01:55:41;;;;;;;3.72;2.30;;;16.50;99.90;;;;;;4930950;29;20474;-82
2022/09/08 01:58:18;;;;;;;4.80;2.30;;;16.50;99.90;;;;;;4915534;29;20059;-82
2022/09/08 02:00:46;;;;;;;2.83;2.63;;;16.50;99.90;;;;;;4914948;29;20055;-82
2022/09/08 02:03:14;;;;;;;4.55;2.33;;;16.60;99.90;;;;;;4899714;29;20055;-82
2022/09/08 02:05:43;;;;;;;5.70;4.25;;;16.50;99.90;;;;;;4915073;29;20067;-82
2022/09/08 02:08:11;;;;;;;8.77;4.05;;;16.50;99.90;;;;;;4917496;29;20516;-83
2022/09/08 02:10:39;;;;;;;3.08;2.03;;;16.60;99.90;;;;;;4934018;29;20047;-82
2022/09/08 02:13:07;;;;;;;2.97;2.67;;;16.50;99.90;;;;;;4933592;29;20043;-82
2022/09/08 02:15:38;;;;;;;3.15;2.30;;;16.50;99.90;;;;;;4949259;28;20043;-82
2022/09/08 02:18:06;;;;;;;2.63;2.25;;;16.40;99.90;;;;;;4953284;29;20798;-81
2022/09/08 02:20:34;;;;;;;2.35;2.15;;;16.40;99.90;;;;;;4953408;28;20421;-82
2022/09/08 02:23:35;;;;;;;8.70;2.70;;;16.40;99.90;;;;;;4938646;29;20051;-87
2022/09/08 02:26:04;;;;;;;4.50;3.75;;;16.40;99.90;;;;;;4952773;29;20413;-81
2022/09/08 02:28:32;;;;;;;3.95;2.10;;;16.40;99.90;;;;;;4937075;29;20043;-81
2022/09/08 02:31:01;;;;;;;10.48;3.13;;;16.30;99.90;;;;;;4953522;29;20047;-81
2022/09/08 02:33:30;;;;;;;5.18;2.22;;;16.30;99.90;;;;;;4938212;28;20514;-82
2022/09/08 02:35:58;;;;;;;3.72;2.00;;;16.30;99.90;;;;;;4936924;28;20050;-82
2022/09/08 02:38:26;;;;;;;2.25;2.03;;;16.30;99.90;;;;;;4937110;29;20059;-82
2022/09/08 02:40:53;;;;;;;9.98;3.38;;;16.30;99.90;;;;;;4953234;28;20047;-81
2022/09/08 02:43:22;;;;;;;2.92;1.95;;;16.30;99.90;;;;;;4938715;29;20405;-81
2022/09/08 02:45:49;;;;;;;6.97;2.28;;;16.30;99.90;;;;;;4938171;28;20063;-81
2022/09/08 02:48:17;;;;;;;3.97;2.53;;;16.30;99.90;;;;;;4952246;28;20067;-81
2022/09/08 02:50:45;;;;;;;2.08;1.88;;;16.30;99.90;;;;;;4937205;29;20048;-81
2022/09/08 02:53:14;;;;;;;3.10;2.67;;;16.20;99.90;;;;;;4936546;29;20051;-81
2022/09/08 02:55:42;;;;;;;5.93;4.15;;;16.20;99.90;;;;;;4938119;28;20047;-80
2022/09/08 02:58:11;;;;;;;8.32;3.28;;;16.20;99.90;;;;;;4938331;29;20044;-81
2022/09/08 03:00:39;;;;;;;2.70;2.50;;;16.10;99.90;;;;;;4938148;28;20047;-81
2022/09/08 03:03:07;;;;;;;2.40;2.20;;;16.10;99.90;;;;;;4953051;29;20276;-81
2022/09/08 03:05:35;;;;;;;2.95;2.58;;;16.10;99.90;;;;;;4952600;28;20046;-81
2022/09/08 03:08:03;;;;;;;2.97;2.67;;;16.10;99.90;;;;;;4952211;28;20054;-82
2022/09/08 03:10:32;;;;;;;4.45;2.80;;;16.00;99.90;;;;;;4938008;29;20489;-82
2022/09/08 03:13:00;;;;;;;2.40;2.10;;;16.00;99.90;;;;;;4952334;28;20405;-81
2022/09/08 03:15:30;;;;;;;3.75;3.45;;;16.00;99.90;;;;;;4952976;29;20048;-83
2022/09/08 03:17:58;;;;;;;6.10;2.22;;;15.90;99.90;;;;;;4936316;29;20047;-81
2022/09/08 03:20:26;;;;;;;4.13;2.47;;;15.90;99.90;;;;;;4936304;28;20050;-81
2022/09/08 03:22:54;;;;;;;3.25;2.92;;;15.90;99.90;;;;;;4952419;28;20474;-81
2022/09/08 03:25:22;;;;;;;4.43;2.22;;;15.80;99.90;;;;;;4936266;29;20162;-87
2022/09/08 03:28:01;;;;;;;3.92;2.22;;;15.80;99.90;;;;;;4935780;28;20055;-86
2022/09/08 03:30:28;;;;;;;2.50;2.15;;;15.80;99.90;;;;;;4937922;29;20055;-87
2022/09/08 03:32:56;;;;;;;4.05;3.45;;;15.80;99.90;;;;;;4920135;29;20040;-81
2022/09/08 03:35:24;;;;;;;5.00;2.25;;;15.70;99.90;;;;;;4920732;29;20394;-81
2022/09/08 03:37:54;;;;;;;2.63;2.42;;;15.70;99.90;;;;;;4919627;29;20047;-81
2022/09/08 03:40:22;;;;;;;4.22;2.55;;;15.70;99.90;;;;;;4951584;28;20047;-81
2022/09/08 03:42:49;;;;;;;3.92;2.47;;;15.70;99.90;;;;;;4937555;29;20043;-88
2022/09/08 03:45:18;;;;;;;2.08;1.92;;;15.70;99.90;;;;;;4920043;29;20051;-87
2022/09/08 03:47:45;;;;;;;2.72;2.53;;;15.70;99.90;;;;;;4937116;28;20059;-86
2022/09/08 03:50:17;;;;;;;4.32;2.00;;;15.70;99.90;;;;;;4937476;29;20056;-86
2022/09/08 03:52:45;;;;;;;5.95;2.15;;;15.70;99.90;;;;;;4951384;28;20048;-87
2022/09/08 03:55:12;;;;;;;2.38;2.13;;;15.70;99.90;;;;;;4952166;29;20048;-87
2022/09/08 03:57:44;;;;;;;2.10;2.00;;;15.70;99.90;;;;;;4951366;28;20040;-88
2022/09/08 04:00:11;;;;;;;;;;;15.60;99.90;;;;;;4951478;28;20046;-87
2022/09/08 04:02:39;;;;;;;3.20;2.00;;;15.70;99.90;;;;;;4937448;29;20296;-87
2022/09/08 04:05:07;;;;;;;2.15;1.95;;;15.60;99.90;;;;;;4951312;28;20036;-87
2022/09/08 04:07:35;;;;;;;4.30;2.58;;;15.50;99.90;;;;;;4951684;29;20044;-87
2022/09/08 04:10:04;;;;;;;1.83;1.73;;;15.50;99.90;;;;;;4933781;29;20052;-87
2022/09/08 04:12:42;;;;;;;4.25;1.90;;;15.50;99.90;;;;;;4935349;29;20124;-87
2022/09/08 04:15:10;;;;;;;4.75;2.15;;;15.50;99.90;;;;;;4935748;29;20054;-88
2022/09/08 04:17:39;;;;;;;2.15;1.95;;;15.50;99.90;;;;;;4936637;28;20494;-87
2022/09/08 04:20:07;;;;;;;12.73;6.10;;;15.40;99.90;;;;;;4934991;29;20489;-87
2022/09/08 04:22:35;;;;;;;2.35;1.95;;;15.40;99.90;;;;;;4904019;29;20640;-87
2022/09/08 04:25:03;;;;;;;2.55;2.03;;;15.40;99.90;;;;;;4935235;29;20055;-88
2022/09/08 04:27:31;;;;;;;5.15;1.73;;;15.40;99.90;;;;;;4951427;29;20043;-88
2022/09/08 04:29:58;;;;;;;2.92;2.10;;;15.40;99.90;;;;;;4950617;28;20493;-87
2022/09/08 04:32:26;;;;;;;5.80;2.28;;;15.40;99.90;;;;;;4950908;28;20043;-88
2022/09/08 04:34:53;;;;;;;1.98;1.88;;;15.40;99.90;;;;;;4951520;29;20040;-88
2022/09/08 04:37:21;;;;;;;2.58;1.60;;;15.40;99.90;;;;;;4934725;29;20052;-87
2022/09/08 04:39:50;;;;;;;4.70;2.40;;;15.40;99.90;;;;;;4933894;28;20051;-87
2022/09/08 04:42:18;;;;;;;2.95;2.17;;;15.40;99.90;;;;;;4951366;29;20056;-87
2022/09/08 04:44:46;;;;;;;4.05;2.10;;;15.40;99.90;;;;;;4950757;28;20044;-87
2022/09/08 04:47:14;;;;;;;5.18;2.25;;;15.40;99.90;;;;;;4951190;29;20082;-87
2022/09/08 04:49:42;;;;;;;11.02;2.25;;;15.50;99.90;;;;;;4950577;28;20047;-86
2022/09/08 04:52:09;;;;;;;1.85;1.75;;;15.40;99.90;;;;;;4934682;29;20494;-87
2022/09/08 04:54:37;;;;;;;3.00;1.67;;;15.40;99.90;;;;;;4950738;29;20047;-87
2022/09/08 04:57:05;;;;;;;1.38;1.02;;;15.40;99.90;;;;;;4934669;28;20047;-87
2022/09/08 04:59:32;;;;;;;1.98;1.42;;;15.30;99.90;;;;;;4934715;29;20051;-87
2022/09/08 05:02:00;;;;;;;1.70;1.60;;;15.30;99.90;;;;;;4934564;29;20047;-87
2022/09/08 05:04:28;;;;;;;1.92;1.60;;;15.40;99.90;;;;;;4950494;28;20044;-87
2022/09/08 05:06:55;;;;;;;1.70;1.58;;;15.40;99.90;;;;;;4934999;29;20079;-87
2022/09/08 05:09:23;;;;;;;1.48;1.40;;;15.50;99.90;;;;;;4949451;28;20040;-87
2022/09/08 05:11:59;;;;;;;7.13;1.65;;;15.50;99.90;;;;;;4927301;28;20493;-87
2022/09/08 05:15:01;;;;;;;1.35;1.25;;;15.40;99.90;;;;;;4884449;29;20152;-85
2022/09/08 05:17:40;;;;;;;1.73;1.30;;;15.40;99.90;;;;;;4898259;29;20049;-87
2022/09/08 05:20:07;;;;;;;1.40;1.30;;;15.30;99.90;;;;;;4898406;29;20047;-87
2022/09/08 05:22:35;;;;;;;3.00;2.58;;;15.30;99.90;;;;;;4883315;29;20737;-87
2022/09/08 05:25:03;;;;;;;2.22;1.75;;;15.30;99.90;;;;;;4883043;29;20044;-87
2022/09/08 05:27:31;;;;;;;3.38;1.45;;;15.30;99.90;;;;;;4898891;29;20044;-86
2022/09/08 05:29:58;;;;;;;1.52;1.42;;;15.20;99.90;;;;;;4879357;29;20052;-87
2022/09/08 05:32:26;;;;;;;2.78;1.40;;;15.20;99.90;;;;;;4864036;29;20152;-86
2022/09/08 05:34:53;;;;;;;2.05;1.85;;;15.20;99.90;;;;;;4880399;29;20438;-87
2022/09/08 05:37:24;;;;;;;3.88;2.30;;;15.20;99.90;;;;;;4895266;29;20051;-87
2022/09/08 05:39:52;;;;;;;2.45;2.10;;;15.20;99.90;;;;;;4858973;29;20052;-86
2022/09/08 05:42:19;;;;;;;1.65;1.38;;;15.20;99.90;;;;;;4860684;29;20064;-84
2022/09/08 05:44:47;;;;;;;5.50;1.85;;;15.30;99.90;;;;;;4860246;29;20204;-86
2022/09/08 05:47:15;;;;;;;1.70;1.58;;;15.30;99.90;;;;;;4891510;29;20052;-85
2022/09/08 05:49:43;;;;;;;2.60;1.30;;;15.20;99.90;;;;;;4890579;29;20052;-88
2022/09/08 05:52:11;;;;;;;1.05;1.02;;;15.20;99.90;;;;;;4922244;28;20560;-87
2022/09/08 05:54:38;;;;;;;2.00;1.40;;;15.30;99.90;;;;;;4949250;29;20400;-85
2022/09/08 05:57:06;;;;;;;2.28;1.83;;;15.30;99.90;;;;;;4934160;28;20410;-86
2022/09/08 05:59:34;;;;;;;5.30;1.40;;;15.30;99.90;;;;;;4936484;29;20070;-88
2022/09/08 06:02:02;;;;;;;4.90;1.58;;;15.30;99.90;;;;;;4953767;29;20066;-87
2022/09/08 06:04:29;;;;;;;1.67;1.58;;;15.30;99.90;;;;;;4953503;28;20052;-87
2022/09/08 06:07:02;;;;;;;1.83;1.27;;;15.30;99.90;;;;;;4952586;29;20043;-86
2022/09/08 06:09:30;;;;;;;1.95;1.42;;;15.40;99.90;;;;;;4950908;28;20209;-86
2022/09/08 06:11:57;;;;;;;3.58;0.90;;;15.40;99.90;;;;;;4952626;28;20048;-87
2022/09/08 06:14:25;;;;;;;1.98;1.50;;;15.40;99.90;;;;;;4920545;29;20048;-85
2022/09/08 06:16:53;;;;;;;1.58;1.48;;;15.40;99.90;;;;;;4950014;28;20047;-86
2022/09/08 06:19:20;;;;;;;1.23;1.13;;;15.50;99.90;;;;;;4934110;29;20067;-86
2022/09/08 06:21:48;;;;;;;1.70;1.10;;;15.50;99.90;;;;;;4934179;28;20051;-86
2022/09/08 06:24:16;;;;;;;2.28;1.55;;;15.50;99.90;;;;;;4932647;29;20053;-86
2022/09/08 06:27:01;;;;;;;1.08;0.98;;;15.50;99.90;;;;;;4934442;29;20394;-85
2022/09/08 06:29:41;;;;;;;4.00;1.45;;;15.60;99.90;;;;;;4932410;28;20084;-86
2022/09/08 06:32:38;;;;;;;2.28;0.95;;;15.60;99.90;;;;;;4949487;28;20421;-86
2022/09/08 06:35:14;;;;;;;2.40;1.40;;;15.60;99.90;;;;;;4933730;29;20044;-87
2022/09/08 06:37:54;;;;;;;1.55;1.00;;;15.70;99.90;;;;;;4945382;29;20055;-86
2022/09/08 06:40:35;;;;;;;0.98;0.98;;;15.70;99.90;;;;;;4936803;29;20047;-86
2022/09/08 06:43:15;;;;;;;;;;;15.80;99.90;;;;;;4922276;29;20481;-87
2022/09/08 06:45:47;;;;;;;1.30;0.82;;;15.90;99.90;;;;;;4921227;29;20293;-87
2022/09/08 06:48:15;;;;;;;1.95;0.93;;;15.90;99.90;;;;;;4936840;29;20047;-86
2022/09/08 06:51:00;;;;;;;0.88;0.88;;;15.90;99.90;;;;;;4937449;29;20048;-86
2022/09/08 06:53:35;;;;;;;0.60;0.60;;;16.00;99.90;;;;;;4936692;28;20047;-86
2022/09/08 06:56:28;;;;;;;1.40;1.05;;;16.00;99.90;;;;;;4936724;29;20055;-87
2022/09/08 06:59:57;;;;;;;1.15;0.80;;;16.00;99.90;;;;;;4935791;29;20493;-86
2022/09/08 07:02:45;;;;;;;0.85;0.85;;;16.00;99.90;;;;;;4949244;28;20489;-86
2022/09/08 07:05:37;;;;;;;5.75;0.80;;;16.10;99.90;;;;;;4939312;28;20047;-86
2022/09/08 07:08:30;;;;;;;2.20;0.45;;;16.10;99.90;;;;;;4904874;29;20051;-86
2022/09/08 07:11:06;;;;;;;0.75;0.73;;;16.00;99.90;;;;;;4937162;29;20055;-87
2022/09/08 07:13:43;;;;;;;0.50;0.50;;;16.00;99.90;;;;;;4937726;28;20377;-86
2022/09/08 07:16:34;;;;;;;1.38;0.77;;;16.00;99.90;;;;;;4937750;28;20059;-81
2022/09/08 07:19:21;;;;;;;0.60;0.60;;;16.00;99.90;;;;;;4937824;29;20082;-80
2022/09/08 07:22:32;;;;;;;0.50;0.50;;;15.90;99.90;;;;;;4935976;29;20058;-81
2022/09/08 07:25:22;;;;;;;0.50;0.50;;;15.80;99.90;;;;;;4936451;29;20039;-80
2022/09/08 07:28:08;;;;;;;0.50;0.50;;;15.70;99.90;;;;;;4936160;28;20405;-81
2022/09/08 07:30:37;;;;;;;0.63;0.45;;;15.70;99.90;;;;;;4925743;29;20047;-81
2022/09/08 07:33:14;;;;;;;0.75;0.68;;;15.70;99.90;;;;;;4951814;28;20040;-80
2022/09/08 07:35:58;;;;;;;0.75;0.75;;;15.60;99.90;;;;;;4951898;28;20054;-80
2022/09/08 07:38:51;;;;;;;0.85;0.40;;;15.50;99.90;;;;;;4951707;29;20043;-80
2022/09/08 07:41:36;;;;;;;0.73;0.73;;;15.50;99.90;;;;;;4951800;28;20048;-81
2022/09/08 07:49:49;;;;;;;0.47;0.47;;;15.20;99.90;;;;;;4942510;23;20403;-82
2022/09/08 07:52:37;;;;;;;0.82;0.82;;;15.00;99.90;;;;;;5002598;28;20050;-82
2022/09/08 07:55:19;;;;;;;1.88;1.30;;;14.90;99.90;;;;;;5010264;28;20046;-80
2022/09/08 07:58:30;;;;;;;0.47;0.47;;;14.80;99.90;;;;;;4993411;28;20751;-81
2022/09/08 08:01:11;;;;;;;0.35;0.35;;;14.70;99.90;;;;;;4993215;28;20407;-79
2022/09/08 08:04:01;;;;;;;0.50;0.50;;;14.60;99.90;;;;;;4994535;28;20046;-84
2022/09/08 08:06:46;;;;;;;1.92;0.88;;;14.50;99.90;;;;;;5013227;28;20048;-81
2022/09/08 08:09:38;;;;;;;0.68;0.68;;;14.50;99.90;;;;;;4995957;28;20061;-82
2022/09/08 08:12:28;;;;;;;0.60;0.60;;;14.50;99.90;;;;;;5008667;28;20050;-88
2022/09/08 08:15:03;;;;;;;0.63;0.63;;;14.50;99.90;;;;;;4991682;28;20042;-87
2022/09/08 08:17:40;;;;;;;0.70;0.70;;;14.50;99.90;;;;;;4991553;28;20046;-86
2022/09/08 08:20:24;;;;;;;0.45;0.45;;;14.60;99.90;;;;;;4989229;28;20050;-88
2022/09/08 08:23:14;;;;;;;0.80;0.80;;;14.60;99.90;;;;;;5004006;28;20038;-88
2022/09/08 08:26:26;;;;;;;0.60;0.60;;;14.50;99.90;;;;;;4977289;28;20398;-87
2022/09/08 08:29:37;;;;;;;0.68;0.68;;;14.60;99.90;;;;;;4951941;28;20062;-88
2022/09/08 08:32:18;;;;;;;0.57;0.57;;;14.70;99.90;;;;;;5029133;28;20061;-88
2022/09/08 08:35:34;;;;;;;0.80;0.80;;;14.70;99.90;;;;;;4999873;28;20049;-87
2022/09/08 08:38:33;;;;;;;0.70;0.60;;;14.70;99.90;;;;;;4962303;28;20050;-88
2022/09/08 08:41:17;;;;;;;0.90;0.80;;;14.70;99.90;;;;;;4987568;28;20041;-87
2022/09/08 08:44:00;;;;;;;5.10;0.60;;;14.70;99.90;;;;;;4967656;28;20049;-87
2022/09/08 08:46:44;;;;;;;0.60;0.60;;;14.70;99.90;;;;;;4994747;28;20054;-88
2022/09/08 08:49:46;;;;;;;1.58;1.00;;;14.80;99.90;;;;;;4998179;28;20048;-89
2022/09/08 08:52:40;;;;;;;0.60;0.60;;;14.80;99.90;;;;;;5012508;28;20042;-90
2022/09/08 08:55:38;;;;;;;3.13;0.85;;;14.90;99.90;;;;;;4980852;28;20129;-91
2022/09/08 09:02:45;;;;;;;1.58;1.10;;;15.00;99.90;;;;;;5102102;23;20282;-87
2022/09/08 09:33:18;;;;;;;2.47;0.65;;;15.80;99.90;;;;;;4812039;29;20187;-85
2022/09/08 09:38:02;;;;;;;0.38;0.38;;;15.80;99.90;;;;;;5303654;24;20047;-87
2022/09/08 09:44:57;;;;;;;1.33;0.70;;;15.50;99.90;;;;;;5441356;24;20050;-87
2022/09/08 09:49:11;;;;;;;0.73;0.73;;;15.60;99.90;;;;;;4751837;30;20161;-88
2022/09/08 09:52:21;;;;;;;4.88;1.20;;;15.60;99.90;;;;;;4762733;29;20065;-89
2022/09/08 09:55:36;;;;;;;0.73;0.47;;;15.70;99.90;;;;;;4841047;29;20085;-89
2022/09/08 10:13:27;;;;;;;0.52;0.50;;;15.90;99.90;;;;;;4813741;29;20539;-89
2022/09/08 10:17:22;;;;;;;0.85;0.82;;;16.20;99.90;;;;;;4824098;29;20060;-87
2022/09/08 10:21:18;;;;;;;1.15;1.00;;;16.20;99.90;;;;;;4815399;29;20056;-87
2022/09/08 10:25:28;;;;;;;1.10;0.70;;;16.30;99.90;;;;;;4831767;29;20048;-88
2022/09/08 10:29:07;;;;;;;3.35;0.70;;;16.30;99.90;;;;;;4806839;29;20053;-87
2022/09/08 10:32:31;;;;;;;0.60;0.60;;;16.30;99.90;;;;;;4779251;29;20051;-89
2022/09/08 10:44:35;;;;;;;;;;;;;;;;;;;;;
2022/09/08 10:49:39;;;;;;;1.33;1.15;;;16.30;99.90;;;;;;4805213;29;20054;-91
2022/09/08 11:08:38;;;;;;;0.65;0.65;;;17.50;99.90;;;;;;4861330;29;20376;-89
2022/09/08 11:12:13;;;;;;;2.63;1.13;;;17.60;99.90;;;;;;4817824;29;20058;-90
2022/09/08 11:15:31;;;;;;;0.63;0.63;;;17.80;99.90;;;;;;4720625;30;20056;-87
2022/09/08 11:18:49;;;;;;;0.50;0.50;;;17.80;99.90;;;;;;4829685;29;20060;-86
2022/09/08 11:21:54;;;;;;;0.30;0.30;;;17.70;99.90;;;;;;4798620;29;20059;-86
2022/09/08 11:25:38;;;;;;;0.43;0.40;;;17.70;99.90;;;;;;4802276;29;20058;-90
2022/09/08 11:29:32;;;;;;;0.40;0.38;;;17.70;99.90;;;;;;4798777;29;20057;-88
2022/09/08 11:32:42;;;;;;;0.30;0.30;;;17.60;99.90;;;;;;4803939;29;20046;-87
2022/09/08 11:36:24;;;;;;;0.60;0.60;;;17.50;99.90;;;;;;4788152;29;20061;-87
2022/09/08 11:39:45;;;;;;;0.57;0.45;;;17.70;99.90;;;;;;4816144;29;20060;-85
2022/09/08 11:42:43;;;;;;;0.40;0.40;;;17.80;99.90;;;;;;4779292;29;20461;-88
2022/09/08 11:45:59;;;;;;;0.30;0.30;;;17.90;99.90;;;;;;4830685;29;20050;-88
2022/09/08 11:49:27;;;;;;;0.47;0.47;;;18.10;99.90;;;;;;4793437;29;20053;-88
2022/09/08 11:53:13;;;;;;;0.38;0.38;;;18.10;99.90;;;;;;4800933;29;20406;-87
2022/09/08 11:57:15;;;;;;;2.00;0.60;;;17.90;99.90;;;;;;4796838;29;20404;-84
2022/09/08 12:05:17;;;;;;;2.78;0.52;;;17.80;99.90;;;;;;4797290;29;20130;-86
2022/09/08 12:08:41;;;;;;;0.50;0.50;;;17.70;99.90;;;;;;4791228;29;20137;-86
2022/09/08 12:11:30;;;;;;;0.45;0.45;;;17.50;99.90;;;;;;4811506;29;20057;-85
2022/09/08 12:14:05;;;;;;;4.65;0.50;;;17.50;99.90;;;;;;4822834;29;20054;-86
2022/09/08 12:17:16;;;;;;;0.80;0.73;;;17.40;99.90;;;;;;4807430;29;20047;-85
2022/09/08 12:19:51;;;;;;;0.65;0.60;;;17.50;99.90;;;;;;4794452;29;20050;-86
2022/09/08 12:23:01;;;;;;;0.75;0.75;;;17.50;99.90;;;;;;4807834;29;20084;-86
2022/09/08 12:25:45;;;;;;;0.50;0.50;;;17.50;99.90;;;;;;4773414;29;20051;-85
2022/09/08 12:29:35;;;;;;;0.43;0.40;;;17.60;99.90;;;;;;4786889;29;20043;-87
2022/09/08 12:32:35;;;;;;;0.30;0.30;;;17.70;99.90;;;;;;4772034;29;20719;-87
2022/09/08 12:35:31;;;;;;;1.73;0.90;;;17.70;99.90;;;;;;4774820;29;20116;-85
2022/09/08 12:38:22;;;;;;;2.40;0.93;;;17.70;99.90;;;;;;4793005;29;20047;-89
2022/09/08 12:41:11;;;;;;;0.40;0.40;;;17.80;99.90;;;;;;4778181;29;20420;-85
2022/09/08 12:48:10;;;;;;;2.35;1.20;;;17.70;99.90;;;;;;4747331;30;20044;-86
2022/09/08 12:51:18;;;;;;;0.40;0.40;;;18.10;99.90;;;;;;4783652;29;20054;-87
2022/09/08 12:54:20;;;;;;;0.43;0.43;;;18.10;99.90;;;;;;4784158;29;20054;-87
2022/09/08 12:57:42;;;;;;;0.43;0.43;;;18.30;99.90;;;;;;4773034;29;20051;-87
2022/09/08 13:00:25;;;;;;;0.90;0.73;;;18.30;99.90;;;;;;4792043;29;20050;-86
2022/09/08 13:03:25;;;;;;;0.95;0.95;;;18.30;99.90;;;;;;4823229;29;20058;-88
2022/09/08 13:06:20;;;;;;;0.30;0.30;;;18.20;99.90;;;;;;4798218;29;20058;-87
2022/09/08 13:09:05;;;;;;;0.40;0.40;;;18.20;99.90;;;;;;4789531;29;20050;-87
2022/09/08 13:12:14;;;;;;;0.95;0.60;;;18.40;99.90;;;;;;4789705;29;20054;-88
2022/09/08 13:15:39;;;;;;;0.40;0.40;;;18.40;99.90;;;;;;4798486;29;20058;-85
2022/09/08 13:18:52;;;;;;;0.55;0.40;;;18.50;99.90;;;;;;4793117;29;20045;-85
2022/09/08 13:21:39;;;;;;;1.10;0.60;;;18.50;99.90;;;;;;4741113;29;20052;-84
2022/09/08 13:33:55;;;;;;;0.63;0.57;;;19.50;99.90;;;;;;4824784;29;20050;-87
2022/09/08 13:36:47;;;;;;;0.60;0.60;;;19.70;99.90;;;;;;4806363;29;20302;-89
2022/09/08 13:40:17;;;;;;;0.47;0.47;;;19.50;99.90;;;;;;4838609;24;20064;-87
2022/09/08 13:43:02;;;;;;;0.65;0.65;;;19.70;99.90;;;;;;4826295;29;20061;-87
2022/09/08 13:45:42;;;;;;;0.45;0.43;;;20.00;99.90;;;;;;4834504;29;20060;-87
2022/09/08 13:48:33;;;;;;;0.30;0.30;;;20.10;99.90;;;;;;4841271;29;20050;-86
2022/09/08 13:51:34;;;;;;;0.98;0.75;;;20.10;99.90;;;;;;4806230;29;20058;-88
2022/09/08 13:54:27;;;;;;;0.43;0.43;;;20.30;99.90;;;;;;4795066;29;20054;-86
2022/09/08 13:57:24;;;;;;;1.77;0.57;;;20.40;99.90;;;;;;4817605;29;20059;-87
2022/09/08 14:00:13;;;;;;;0.52;0.52;;;20.40;99.90;;;;;;4800050;29;20069;-86
2022/09/08 14:16:34;;;;;;;0.70;0.60;;;20.70;99.90;;;;;;4866621;29;20052;-85
2022/09/08 14:19:54;;;;;;;1.20;0.70;;;20.50;99.90;;;;;;4846034;29;20491;-87
2022/09/08 14:22:44;;;;;;;1.77;0.63;;;20.80;99.90;;;;;;4774440;29;20058;-86
2022/09/08 14:25:38;;;;;;;0.40;0.40;;;20.70;99.90;;;;;;4830060;29;20054;-86
2022/09/08 14:28:29;;;;;;;0.50;0.50;;;20.40;99.90;;;;;;4825783;29;20045;-85
2022/09/08 14:32:31;;;;;;;;;;;;;;;;;;;;;
2022/09/08 14:35:45;;;;;;;0.55;0.40;;;20.90;99.90;;;;;;4830902;29;20050;-89
2022/09/08 14:38:58;;;;;;;0.60;0.43;;;21.30;99.90;;;;;;4827217;29;20086;-89
2022/09/08 14:41:54;;;;;;;0.55;0.55;;;21.30;99.90;;;;;;4825361;29;20041;-89
2022/09/08 14:45:12;;;;;;;0.63;0.60;;;21.10;99.90;;;;;;4823401;29;20384;-88
2022/09/08 14:49:13;;;;;;;0.65;0.65;;;21.10;99.90;;;;;;4838436;29;20155;-88
2022/09/08 14:55:45;;;;;;;0.57;0.55;;;21.20;99.90;;;;;;4823198;29;20816;-89
2022/09/08 14:59:17;;;;;;;1.98;1.88;;;21.20;99.90;;;;;;4802487;29;20065;-88
2022/09/08 15:02:16;;;;;;;1.70;0.70;;;21.30;99.90;;;;;;4814242;29;20061;-87
2022/09/08 15:04:53;;;;;;;3.20;0.40;;;21.50;99.90;;;;;;4813828;29;20835;-90
2022/09/08 15:08:34;;;;;;;7.38;1.50;;;21.70;99.90;;;;;;4806220;29;20069;-88
2022/09/08 15:20:01;;;;;;;0.73;0.63;;;21.70;99.90;;;;;;4820309;29;20062;-81
2022/09/08 15:27:53;;;;;;;2.27;0.67;;;21.80;99.90;;;;;;4858248;29;20053;-82
2022/09/08 15:30:29;;;;;;;0.80;0.50;;;21.70;99.90;;;;;;4841623;29;20492;-87
2022/09/08 15:33:15;;;;;;;0.98;0.55;;;21.50;99.90;;;;;;4857523;29;20060;-83
2022/09/08 15:36:06;;;;;;;1.45;0.70;;;21.40;99.90;;;;;;4857960;29;20097;-82
2022/09/08 15:39:06;;;;;;;1.83;1.45;;;21.50;99.90;;;;;;4856928;29;20095;-81
2022/09/08 15:41:50;;;;;;;0.88;0.70;;;21.60;99.90;;;;;;4833327;29;20053;-82
2022/09/08 15:44:53;;;;;;;1.20;1.10;;;21.50;99.90;;;;;;4855412;29;20057;-81
2022/09/08 15:47:24;;;;;;;0.50;0.50;;;21.40;99.90;;;;;;4858723;29;20057;-82
2022/09/08 15:49:54;;;;;;;;;;;21.40;99.90;;;;;;4850090;29;20380;-82
2022/09/08 15:52:32;;;;;;;0.80;0.60;;;21.30;99.90;;;;;;4856492;29;19928;-82
2022/09/08 15:55:52;;;;;;;1.75;0.40;;;21.10;99.90;;;;;;4858861;29;20062;-82
2022/09/08 16:02:25;;;;;;;0.80;0.80;;;21.30;99.90;;;;;;4791842;29;20091;-82
2022/09/08 16:05:14;;;;;;;1.25;0.63;;;21.60;99.90;;;;;;4795967;29;20054;-82
2022/09/08 16:08:02;;;;;;;1.55;1.45;;;21.70;99.90;;;;;;4814378;29;20544;-82
2022/09/08 16:10:32;;;;;;;1.85;0.60;;;21.40;99.90;;;;;;4825029;29;20049;-84
2022/09/08 16:13:14;;;;;;;1.58;0.70;;;20.90;99.90;;;;;;4811957;29;20053;-90
2022/09/08 16:16:45;;;;;;;1.42;0.77;;;20.70;99.90;;;;;;4842212;29;20073;-86
2022/09/08 16:19:36;;;;;;;2.20;0.70;;;20.90;99.90;;;;;;4825606;29;20057;-84
2022/09/08 16:22:15;;;;;;;2.38;0.70;;;20.50;99.90;;;;;;4840755;29;20388;-81
2022/09/08 16:24:52;;;;;;;0.98;0.93;;;20.50;99.90;;;;;;4856863;29;20049;-82
2022/09/08 16:27:35;;;;;;;0.70;0.70;;;20.60;99.90;;;;;;4815820;29;20066;-81
2022/09/08 16:30:25;;;;;;;;;;;20.70;99.90;;;;;;4837105;29;20049;-84
2022/09/08 16:33:16;;;;;;;1.75;0.93;;;20.80;99.90;;;;;;4811581;29;19940;-79
2022/09/08 16:36:02;;;;;;;0.85;0.85;;;20.70;99.90;;;;;;4837477;29;20054;-81
2022/09/08 16:38:48;;;;;;;1.48;0.80;;;20.60;99.90;;;;;;4833235;29;20045;-81
2022/09/08 16:41:30;;;;;;;0.57;0.50;;;20.40;99.90;;;;;;4863828;29;20044;-82
2022/09/08 16:44:09;;;;;;;0.70;0.70;;;20.30;99.90;;;;;;4874315;29;20376;-81
2022/09/08 16:46:39;;;;;;;0.82;0.82;;;20.30;99.90;;;;;;4875235;29;20053;-82